Sylvain Moniquet

Lotto Soudal

Photo: Photonews

What's on?
6.05 Giro d'Italia | 2.UWT
Information
Nationality Belgium
Born14th January 1998 (24), Namur
Height1.75 m
UCI Ranking 617
Agency 10SPEED HR

20222021202020192018201720162015

Lotto Soudal (WorldTour) UCI Ranking: 617 Race days: 34 Distance: 5.778km
Date Pos GC Race CAT UCI
14.02 37 Jaén Paraiso Interior 1.1 2022-02-14Show more
26.02 18 Faun-Ardèche Classic 1.Pro 2022-02-265Show more
27.02 29 La Drome Classic 1.Pro 2022-02-275Show more
20.02 45 Vuelta a Andalucía 2.Pro 2022-02-20Show more
02.04 22 GP Miguel Indurain 1.Pro 2022-04-025Show more
27.03 29 Volta Catalunya 2.UWT 2022-03-2716Show more
09.04 DNF Itzulia Basque Country 2.UWT 2022-04-09Show more
15.04 8 Classic Grand Besançon Doubs 1.1 2022-04-1530Show more
16.04 DNF Tour du Jura 1.1 2022-04-16Show more
20.04 28 La Fleche Wallonne 1.UWT 2022-04-2016Show more
24.04 31 Liège-Bastogne-Liège 1.UWT 2022-04-2410Show more
27.03 9 Volta Catalunya | Youth 2.UWT 2022-03-27
20.02 39 Vuelta a Andalucía | Points 2.Pro 2022-02-20
15.05 120 70 Giro d'Italia | 9th stage 2.UWT 2022-05-15
14.05 14 50 Giro d'Italia | 8th stage 2.UWT 2022-05-14
13.05 41 52 Giro d'Italia | 7th stage 2.UWT 2022-05-13
12.05 149 78 Giro d'Italia | 6th stage 2.UWT 2022-05-12
11.05 158 78 Giro d'Italia | 5th stage 2.UWT 2022-05-11
10.05 4 42 Giro d'Italia | 4th stage 2.UWT 2022-05-1012
08.05 150 140 Giro d'Italia | 3rd stage 2.UWT 2022-05-08
07.05 129 142 Giro d'Italia | 2nd stage 2.UWT 2022-05-07
06.05 136 136 Giro d'Italia | 1st stage 2.UWT 2022-05-06
09.04 OOT Itzulia Basque Country | 6th stage 2.UWT 2022-04-09
08.04 25 27 Itzulia Basque Country | 5th stage 2.UWT 2022-04-08
07.04 23 28 Itzulia Basque Country | 4th stage 2.UWT 2022-04-07
06.04 29 43 Itzulia Basque Country | 3rd stage 2.UWT 2022-04-06
05.04 94 141 Itzulia Basque Country | 2nd stage 2.UWT 2022-04-05
04.04 155 155 Itzulia Basque Country | 1st stage 2.UWT 2022-04-04
27.03 21 29 Volta Catalunya | 7th stage 2.UWT 2022-03-27
26.03 61 36 Volta Catalunya | 6th stage 2.UWT 2022-03-26
25.03 20 22 Volta Catalunya | 5th stage 2.UWT 2022-03-25
24.03 25 23 Volta Catalunya | 4th stage 2.UWT 2022-03-24
23.03 31 30 Volta Catalunya | 3rd stage 2.UWT 2022-03-23
22.03 48 40 Volta Catalunya | 2nd stage 2.UWT 2022-03-22
21.03 21 22 Volta Catalunya | 1st stage 2.UWT 2022-03-21
20.02 103 45 Vuelta a Andalucía | 5th stage 2.Pro 2022-02-20
19.02 33 21 Vuelta a Andalucía | 4th stage 2.Pro 2022-02-19
18.02 15 19 Vuelta a Andalucía | 3rd stage 2.Pro 2022-02-18
17.02 17 30 Vuelta a Andalucía | 2nd stage 2.Pro 2022-02-17
16.02 44 45 Vuelta a Andalucía | 1st stage 2.Pro 2022-02-16